createdAt,value
2017-08-31T00:00:45.414Z,22.00
2017-08-31T00:03:11.685Z,22.00
2017-08-31T00:05:37.933Z,22.00
2017-08-31T00:08:04.188Z,22.00
2017-08-31T00:10:30.469Z,22.00
2017-08-31T00:12:56.730Z,21.90
2017-08-31T00:15:22.973Z,21.90
2017-08-31T00:17:49.233Z,21.90
2017-08-31T00:20:15.478Z,22.00
2017-08-31T00:22:41.717Z,21.90
2017-08-31T00:25:07.969Z,21.90
2017-08-31T00:27:34.290Z,21.90
2017-08-31T00:30:00.895Z,21.90
2017-08-31T00:32:27.146Z,21.90
2017-08-31T00:34:53.410Z,21.90
2017-08-31T00:37:19.641Z,21.90
2017-08-31T00:39:45.909Z,21.90
2017-08-31T00:42:12.142Z,21.90
2017-08-31T00:44:38.413Z,21.90
2017-08-31T00:47:04.697Z,21.90
2017-08-31T00:49:30.922Z,21.90
2017-08-31T00:51:57.146Z,21.90
2017-08-31T00:54:23.406Z,21.90
2017-08-31T00:56:49.673Z,21.90
2017-08-31T00:59:15.918Z,21.90
2017-08-31T01:01:42.177Z,21.90
2017-08-31T01:04:08.423Z,21.90
2017-08-31T01:06:34.653Z,21.90
2017-08-31T01:09:00.907Z,21.90
2017-08-31T01:11:27.166Z,21.80
2017-08-31T01:13:53.406Z,21.80
2017-08-31T01:16:19.756Z,21.80
2017-08-31T01:18:46.047Z,21.80
2017-08-31T01:21:12.304Z,21.80
2017-08-31T01:23:38.549Z,21.80
2017-08-31T01:26:05.519Z,21.80
2017-08-31T01:28:31.847Z,21.80
2017-08-31T01:30:59.090Z,21.80
2017-08-31T01:33:25.341Z,21.80
2017-08-31T01:35:51.593Z,21.80
2017-08-31T01:38:17.834Z,21.80
2017-08-31T01:40:44.070Z,21.80
2017-08-31T01:43:10.297Z,21.80
2017-08-31T01:45:36.547Z,21.80
2017-08-31T01:48:02.962Z,21.80
2017-08-31T01:50:29.190Z,21.70
2017-08-31T01:52:55.455Z,21.70
2017-08-31T01:55:21.687Z,21.70
2017-08-31T01:57:47.927Z,21.70
2017-08-31T02:00:14.214Z,21.70
2017-08-31T02:02:40.461Z,21.70
2017-08-31T02:05:06.687Z,21.70
2017-08-31T02:07:33.866Z,21.70
2017-08-31T02:10:00.205Z,21.60
2017-08-31T02:12:26.490Z,21.60
2017-08-31T02:14:54.535Z,21.60
2017-08-31T02:17:20.766Z,21.60
2017-08-31T02:19:47.002Z,21.60
2017-08-31T02:22:13.245Z,21.60
2017-08-31T02:24:39.478Z,21.60
2017-08-31T02:27:05.725Z,21.60
2017-08-31T02:29:33.247Z,21.60
2017-08-31T02:31:59.682Z,21.70
2017-08-31T02:34:25.914Z,21.70
2017-08-31T02:36:52.195Z,21.70
2017-08-31T02:39:18.421Z,21.70
2017-08-31T02:41:44.673Z,21.70
2017-08-31T02:44:10.933Z,21.70
2017-08-31T02:46:37.178Z,21.70
2017-08-31T02:49:03.415Z,21.70
2017-08-31T02:51:29.655Z,21.80
2017-08-31T02:53:55.898Z,21.80
2017-08-31T02:56:22.120Z,21.80
2017-08-31T02:58:49.177Z,21.80
2017-08-31T03:01:15.414Z,21.80
2017-08-31T03:03:41.743Z,21.80
2017-08-31T03:06:08.986Z,21.80
2017-08-31T03:08:35.219Z,21.80
2017-08-31T03:11:01.446Z,21.80
2017-08-31T03:13:27.714Z,21.80
2017-08-31T03:15:53.969Z,21.80
2017-08-31T03:18:20.222Z,21.80
2017-08-31T03:20:46.465Z,21.70
2017-08-31T03:23:12.699Z,21.80
2017-08-31T03:25:38.934Z,21.70
2017-08-31T03:28:05.190Z,21.70
2017-08-31T03:30:33.187Z,21.70
2017-08-31T03:32:59.623Z,21.80
2017-08-31T03:35:25.891Z,21.80
2017-08-31T03:37:53.230Z,21.80
2017-08-31T03:40:19.458Z,21.70
2017-08-31T03:42:45.716Z,21.70
2017-08-31T03:45:11.955Z,21.70
2017-08-31T03:47:38.187Z,21.70
2017-08-31T03:50:04.467Z,21.70
2017-08-31T03:52:30.714Z,21.70
2017-08-31T03:54:56.937Z,21.70
2017-08-31T03:57:23.197Z,21.70
2017-08-31T03:59:49.438Z,21.70
2017-08-31T04:02:15.666Z,21.70
2017-08-31T04:04:41.916Z,21.70
2017-08-31T04:07:08.142Z,21.70
2017-08-31T04:09:34.370Z,21.70
2017-08-31T04:12:00.634Z,21.70
2017-08-31T04:14:26.898Z,21.70
2017-08-31T04:16:53.143Z,21.60
2017-08-31T04:19:19.387Z,21.60
2017-08-31T04:21:45.614Z,21.60
2017-08-31T04:24:11.835Z,21.50
2017-08-31T04:26:38.094Z,21.50
2017-08-31T04:29:04.412Z,21.50
2017-08-31T04:31:30.773Z,21.50
2017-08-31T04:33:57.292Z,21.50
2017-08-31T04:36:23.514Z,21.50
2017-08-31T04:38:49.745Z,21.50
2017-08-31T04:41:16.001Z,21.50
2017-08-31T04:43:42.280Z,21.40
2017-08-31T04:46:08.539Z,21.40
2017-08-31T04:48:34.795Z,21.40
2017-08-31T04:51:01.034Z,21.30
2017-08-31T04:53:27.269Z,21.40
2017-08-31T04:55:53.524Z,21.40
2017-08-31T04:58:19.754Z,21.40
2017-08-31T05:00:45.989Z,21.40
2017-08-31T05:03:12.273Z,21.40
2017-08-31T05:05:38.510Z,21.30
2017-08-31T05:08:04.963Z,21.30
2017-08-31T05:10:31.234Z,21.30
2017-08-31T05:12:57.503Z,21.30
2017-08-31T05:15:23.725Z,21.30
2017-08-31T05:17:49.998Z,21.30
2017-08-31T05:20:16.233Z,21.30
2017-08-31T05:22:42.474Z,21.20
2017-08-31T05:25:08.734Z,21.20
2017-08-31T05:27:34.986Z,21.20
2017-08-31T05:30:01.252Z,21.20
2017-08-31T05:32:27.597Z,21.20
2017-08-31T05:34:54.358Z,21.20
2017-08-31T05:37:20.610Z,21.20
2017-08-31T05:39:46.880Z,21.10
2017-08-31T05:42:13.122Z,21.10
2017-08-31T05:44:39.358Z,21.00
2017-08-31T05:47:12.614Z,21.00
2017-08-31T05:49:38.874Z,21.00
2017-08-31T05:52:05.133Z,21.00
2017-08-31T05:54:31.410Z,21.00
2017-08-31T05:56:57.669Z,21.00
2017-08-31T05:59:23.954Z,21.00
2017-08-31T06:01:50.198Z,21.00
2017-08-31T06:04:16.454Z,20.90
2017-08-31T06:06:42.694Z,20.90
2017-08-31T06:09:09.750Z,20.80
2017-08-31T06:11:35.996Z,20.80
2017-08-31T06:14:02.294Z,20.80
2017-08-31T06:16:28.666Z,20.80
2017-08-31T06:18:54.922Z,20.80
2017-08-31T06:21:21.175Z,20.80
2017-08-31T06:23:47.442Z,20.80
2017-08-31T06:26:13.793Z,20.80
2017-08-31T06:28:40.084Z,20.80
2017-08-31T06:31:06.359Z,20.80
2017-08-31T06:33:32.940Z,20.80
2017-08-31T06:35:59.520Z,20.70
2017-08-31T06:38:25.923Z,20.80
2017-08-31T06:40:52.157Z,20.70
2017-08-31T06:43:18.420Z,20.70
2017-08-31T06:45:44.716Z,20.70
2017-08-31T06:48:10.947Z,20.70
2017-08-31T06:50:37.181Z,20.70
2017-08-31T06:53:03.442Z,20.70
2017-08-31T06:55:29.700Z,20.70
2017-08-31T06:57:55.926Z,20.70
2017-08-31T07:00:22.197Z,20.70
2017-08-31T07:02:48.421Z,20.70
2017-08-31T07:05:14.669Z,20.70
2017-08-31T07:07:40.930Z,20.60
2017-08-31T07:10:07.175Z,20.60
2017-08-31T07:12:33.482Z,20.60
2017-08-31T07:14:59.747Z,20.60
2017-08-31T07:17:25.994Z,20.60
2017-08-31T07:19:52.324Z,20.60
2017-08-31T07:22:19.168Z,20.60
2017-08-31T07:24:45.420Z,20.60
2017-08-31T07:27:18.630Z,20.50
2017-08-31T07:29:44.930Z,20.50
2017-08-31T07:32:11.161Z,20.50
2017-08-31T07:34:37.503Z,20.50
2017-08-31T07:37:04.098Z,20.40
2017-08-31T07:39:30.346Z,20.40
2017-08-31T07:42:01.497Z,20.30
2017-08-31T07:44:27.747Z,20.30
2017-08-31T07:46:53.972Z,20.20
2017-08-31T07:49:20.246Z,20.30
2017-08-31T07:51:46.458Z,20.30
2017-08-31T07:54:12.679Z,20.20
2017-08-31T07:56:38.909Z,20.30
2017-08-31T07:59:05.127Z,20.30
2017-08-31T08:01:31.353Z,20.30
2017-08-31T08:03:57.609Z,20.30
2017-08-31T08:06:23.841Z,20.30
2017-08-31T08:08:50.066Z,20.30
2017-08-31T08:11:16.294Z,20.20
2017-08-31T08:13:42.511Z,20.30
2017-08-31T08:16:08.730Z,20.30
2017-08-31T08:18:34.980Z,20.30
2017-08-31T08:21:01.199Z,20.30
2017-08-31T08:23:27.421Z,20.30
2017-08-31T08:25:53.669Z,20.30
2017-08-31T08:28:19.929Z,20.20
2017-08-31T08:30:46.156Z,20.20
2017-08-31T08:33:12.398Z,20.20
2017-08-31T08:35:38.724Z,20.10
2017-08-31T08:38:06.105Z,20.10
2017-08-31T08:40:32.362Z,20.10
2017-08-31T08:42:58.674Z,20.10
2017-08-31T08:45:24.902Z,20.00
2017-08-31T08:47:51.149Z,20.10
2017-08-31T08:50:17.385Z,20.00
2017-08-31T08:52:43.662Z,20.00
2017-08-31T08:55:10.706Z,20.00
2017-08-31T08:57:36.946Z,20.00
2017-08-31T09:00:03.218Z,20.00
2017-08-31T09:02:29.469Z,20.00
2017-08-31T09:04:55.707Z,20.00
2017-08-31T09:07:21.913Z,20.00
2017-08-31T09:09:48.161Z,20.00
2017-08-31T09:12:15.353Z,20.00
2017-08-31T09:14:48.403Z,20.00
2017-08-31T09:17:14.622Z,20.00
2017-08-31T09:19:40.837Z,20.00
2017-08-31T09:22:08.078Z,19.90
2017-08-31T09:24:34.295Z,19.80
2017-08-31T09:27:00.527Z,19.70
2017-08-31T09:29:26.910Z,19.70
2017-08-31T09:31:53.129Z,19.60
2017-08-31T09:34:19.350Z,19.60
2017-08-31T09:36:45.809Z,19.50
2017-08-31T09:39:19.310Z,19.50
2017-08-31T09:41:45.559Z,19.50
2017-08-31T09:44:11.774Z,19.50
2017-08-31T09:46:37.994Z,19.50
2017-08-31T09:49:04.249Z,19.50
2017-08-31T09:51:30.483Z,19.50
2017-08-31T09:53:56.731Z,19.60
2017-08-31T09:56:22.992Z,19.60
2017-08-31T09:58:49.233Z,19.60
2017-08-31T10:01:15.466Z,19.60
2017-08-31T10:03:41.718Z,19.50
2017-08-31T10:06:07.963Z,19.50
2017-08-31T10:08:34.198Z,19.50
2017-08-31T10:11:00.490Z,19.40
2017-08-31T10:13:26.719Z,19.40
2017-08-31T10:15:52.950Z,19.40
2017-08-31T10:18:19.177Z,19.40
2017-08-31T10:20:45.393Z,19.40
2017-08-31T10:23:11.634Z,19.50
2017-08-31T10:25:37.882Z,19.50
2017-08-31T10:28:04.124Z,19.50
2017-08-31T10:30:30.378Z,19.60
2017-08-31T10:32:56.634Z,19.60
2017-08-31T10:35:22.877Z,19.60
2017-08-31T10:37:49.192Z,19.60
2017-08-31T10:40:15.630Z,19.50
2017-08-31T10:42:41.847Z,19.50
2017-08-31T10:45:08.073Z,19.50
2017-08-31T10:47:34.301Z,19.50
2017-08-31T10:50:00.533Z,19.40
2017-08-31T10:52:26.774Z,19.40
2017-08-31T10:54:53.009Z,19.30
2017-08-31T10:57:19.237Z,19.30
2017-08-31T10:59:45.474Z,19.30
2017-08-31T11:02:11.733Z,19.30
2017-08-31T11:04:37.946Z,19.30
2017-08-31T11:07:04.198Z,19.40
2017-08-31T11:09:30.518Z,19.40
2017-08-31T11:11:57.847Z,19.30
2017-08-31T11:14:24.085Z,19.40
2017-08-31T11:16:50.342Z,19.40
2017-08-31T11:19:16.590Z,19.40
2017-08-31T11:21:42.846Z,19.40
2017-08-31T11:24:09.098Z,19.40
2017-08-31T11:26:35.341Z,19.30
2017-08-31T11:29:01.745Z,19.30
2017-08-31T11:31:27.979Z,19.20
2017-08-31T11:33:54.340Z,19.30
2017-08-31T11:36:20.504Z,19.30
2017-08-31T11:38:46.807Z,19.30
2017-08-31T11:41:13.378Z,19.30
2017-08-31T11:43:39.605Z,19.30
2017-08-31T11:46:05.844Z,19.30
2017-08-31T11:48:32.108Z,19.30
2017-08-31T11:50:59.253Z,19.30
2017-08-31T11:53:25.502Z,19.30
2017-08-31T11:55:51.713Z,19.30
2017-08-31T11:58:17.974Z,19.40
2017-08-31T12:00:44.381Z,19.40
2017-08-31T12:03:10.596Z,19.40
2017-08-31T12:05:36.813Z,19.50
2017-08-31T12:08:03.233Z,19.50
2017-08-31T12:10:29.441Z,19.60
2017-08-31T12:12:55.670Z,19.60
2017-08-31T12:15:21.921Z,19.70
2017-08-31T12:17:48.994Z,19.60
2017-08-31T12:20:15.197Z,19.60
2017-08-31T12:22:41.453Z,19.60
2017-08-31T12:25:07.678Z,19.50
2017-08-31T12:27:33.910Z,19.50
2017-08-31T12:30:00.167Z,19.50
2017-08-31T12:32:26.387Z,19.50
2017-08-31T12:34:52.619Z,19.50
2017-08-31T12:37:18.861Z,19.50
2017-08-31T12:39:45.153Z,19.50
2017-08-31T12:42:11.610Z,19.50
2017-08-31T12:44:37.863Z,19.40
2017-08-31T12:47:04.312Z,19.40
2017-08-31T12:49:30.544Z,19.40
2017-08-31T12:51:56.793Z,19.30
2017-08-31T12:54:23.017Z,19.30
2017-08-31T12:56:49.250Z,19.30
2017-08-31T12:59:15.490Z,19.30
2017-08-31T13:01:41.767Z,19.30
2017-08-31T13:04:08.617Z,19.30
2017-08-31T13:06:34.880Z,19.20
2017-08-31T13:09:01.151Z,19.30
2017-08-31T13:11:27.383Z,19.20
2017-08-31T13:13:53.625Z,19.20
2017-08-31T13:16:19.862Z,19.30
2017-08-31T13:18:46.085Z,19.40
2017-08-31T13:21:12.308Z,19.40
2017-08-31T13:23:38.510Z,19.50
2017-08-31T13:26:04.734Z,19.50
2017-08-31T13:28:30.972Z,19.50
2017-08-31T13:30:57.187Z,19.50
2017-08-31T13:33:23.418Z,19.50
2017-08-31T13:35:49.665Z,19.60
2017-08-31T13:38:15.894Z,19.60
2017-08-31T13:40:43.078Z,19.60
2017-08-31T13:43:09.570Z,19.60
2017-08-31T13:45:35.802Z,19.60
2017-08-31T13:48:02.040Z,19.70
2017-08-31T13:50:28.366Z,19.70
2017-08-31T13:52:54.610Z,19.70
2017-08-31T13:55:20.890Z,19.80
2017-08-31T13:57:47.113Z,19.70
2017-08-31T14:00:13.369Z,19.70
2017-08-31T14:02:39.607Z,19.60
2017-08-31T14:05:05.861Z,19.50
2017-08-31T14:07:32.092Z,19.50
2017-08-31T14:09:58.316Z,19.50
2017-08-31T14:12:24.571Z,19.40
2017-08-31T14:14:50.794Z,19.40
2017-08-31T14:17:17.010Z,19.50
2017-08-31T14:19:43.545Z,19.50
2017-08-31T14:22:09.775Z,19.50
2017-08-31T14:24:36.006Z,19.40
2017-08-31T14:27:02.260Z,19.30
2017-08-31T14:29:28.586Z,19.40
2017-08-31T14:31:54.842Z,19.40
2017-08-31T14:34:21.069Z,19.40
2017-08-31T14:36:47.393Z,19.40
2017-08-31T14:39:13.618Z,19.40
2017-08-31T14:41:39.974Z,19.50
2017-08-31T14:44:06.529Z,19.50
2017-08-31T14:46:32.903Z,19.40
2017-08-31T14:48:59.150Z,19.40
2017-08-31T14:51:25.466Z,19.40
2017-08-31T14:53:51.696Z,19.40
2017-08-31T14:56:17.951Z,19.30
2017-08-31T14:58:44.160Z,19.20
2017-08-31T15:01:10.398Z,19.10
2017-08-31T15:03:36.647Z,19.10
2017-08-31T15:06:03.725Z,19.00
2017-08-31T15:08:29.980Z,19.00
2017-08-31T15:10:56.228Z,19.00
2017-08-31T15:13:22.459Z,18.90
2017-08-31T15:15:48.678Z,18.90
2017-08-31T15:18:14.921Z,18.90
2017-08-31T15:20:41.147Z,18.90
2017-08-31T15:23:07.383Z,18.90
2017-08-31T15:25:33.618Z,18.90
2017-08-31T15:27:59.862Z,19.00
2017-08-31T15:30:26.086Z,18.80
2017-08-31T15:32:52.342Z,18.70
2017-08-31T15:35:18.574Z,18.70
2017-08-31T15:37:44.806Z,18.60
2017-08-31T15:40:11.070Z,18.50
2017-08-31T15:42:37.394Z,18.50
2017-08-31T15:45:03.812Z,18.50
2017-08-31T15:47:30.054Z,18.50
2017-08-31T15:49:56.277Z,18.50
2017-08-31T15:52:22.493Z,18.60
2017-08-31T15:54:48.738Z,18.60
2017-08-31T15:57:14.956Z,18.60
2017-08-31T15:59:41.157Z,18.60
2017-08-31T16:02:07.394Z,18.60
2017-08-31T16:04:34.437Z,18.60
2017-08-31T16:07:00.667Z,18.50
2017-08-31T16:09:26.916Z,18.50
2017-08-31T16:11:53.129Z,18.50
2017-08-31T16:14:19.362Z,18.50
2017-08-31T16:16:46.665Z,18.40
2017-08-31T16:19:12.905Z,18.40
2017-08-31T16:21:39.139Z,18.40
2017-08-31T16:24:05.369Z,18.40
2017-08-31T16:26:31.606Z,18.40
2017-08-31T16:28:57.829Z,18.40
2017-08-31T16:31:24.772Z,18.50
2017-08-31T16:33:51.000Z,18.50
2017-08-31T16:36:18.049Z,18.50
2017-08-31T16:38:44.334Z,18.50
2017-08-31T16:41:10.575Z,18.50
2017-08-31T16:43:36.869Z,18.60
2017-08-31T16:46:03.317Z,18.60
2017-08-31T16:48:29.538Z,18.60
2017-08-31T16:50:55.758Z,18.70
2017-08-31T16:53:22.023Z,18.70
2017-08-31T16:55:48.254Z,18.70
2017-08-31T16:58:14.523Z,18.70
2017-08-31T17:00:40.773Z,18.70
2017-08-31T17:03:07.003Z,18.60
2017-08-31T17:05:33.358Z,18.60
2017-08-31T17:08:00.464Z,18.60
2017-08-31T17:10:26.670Z,18.60
2017-08-31T17:12:53.902Z,18.60
2017-08-31T17:15:20.149Z,18.60
2017-08-31T17:17:46.382Z,18.60
2017-08-31T17:20:12.682Z,18.60
2017-08-31T17:22:38.946Z,18.60
2017-08-31T17:25:05.177Z,18.60
2017-08-31T17:27:31.409Z,18.70
2017-08-31T17:29:57.714Z,18.60
2017-08-31T17:32:23.946Z,18.60
2017-08-31T17:34:50.198Z,18.70
2017-08-31T17:37:16.443Z,18.70
2017-08-31T17:39:42.689Z,18.70
2017-08-31T17:42:08.943Z,18.70
2017-08-31T17:44:35.325Z,18.80
2017-08-31T17:47:02.754Z,18.70
2017-08-31T17:49:28.991Z,18.70
2017-08-31T17:51:55.251Z,18.80
2017-08-31T17:54:21.471Z,18.80
2017-08-31T17:56:47.804Z,18.70
2017-08-31T17:59:14.072Z,18.70
2017-08-31T18:01:40.303Z,18.60
2017-08-31T18:04:06.526Z,18.60
2017-08-31T18:06:33.791Z,18.60
2017-08-31T18:09:00.002Z,18.60
2017-08-31T18:11:26.234Z,18.70
2017-08-31T18:13:52.472Z,18.60
2017-08-31T18:16:18.691Z,18.60
2017-08-31T18:18:44.922Z,18.60
2017-08-31T18:21:11.165Z,18.60
2017-08-31T18:23:37.381Z,18.60
2017-08-31T18:26:03.604Z,18.50
2017-08-31T18:28:29.877Z,18.50
2017-08-31T18:30:56.129Z,18.50
2017-08-31T18:33:22.378Z,18.50
2017-08-31T18:35:48.630Z,18.40
2017-08-31T18:38:14.858Z,18.40
2017-08-31T18:40:41.198Z,18.40
2017-08-31T18:43:07.455Z,18.40
2017-08-31T18:45:33.784Z,18.40
2017-08-31T18:48:00.192Z,18.40
2017-08-31T18:53:05.225Z,18.40
2017-08-31T18:55:31.478Z,18.40
2017-08-31T18:57:57.741Z,18.40
2017-08-31T19:00:23.970Z,18.40
2017-08-31T19:02:50.214Z,18.40
2017-08-31T19:05:16.430Z,18.40
2017-08-31T19:07:42.678Z,18.40
2017-08-31T19:10:08.941Z,18.40
2017-08-31T19:12:35.202Z,18.40
2017-08-31T19:15:01.430Z,18.40
2017-08-31T19:17:27.674Z,18.40
2017-08-31T19:19:53.904Z,18.40
2017-08-31T19:22:20.259Z,18.40
2017-08-31T19:24:46.479Z,18.40
2017-08-31T19:27:13.671Z,18.40
2017-08-31T19:29:40.657Z,18.50
2017-08-31T19:32:06.914Z,18.50
2017-08-31T19:34:36.699Z,18.50
2017-08-31T19:37:03.086Z,18.50
2017-08-31T19:39:30.138Z,18.50
2017-08-31T19:41:56.365Z,18.50
2017-08-31T19:44:22.582Z,18.50
2017-08-31T19:46:48.962Z,18.40
2017-08-31T19:49:15.659Z,18.50
2017-08-31T19:51:41.930Z,18.50
2017-08-31T19:54:08.304Z,18.40
2017-08-31T19:56:35.639Z,18.40
2017-08-31T19:59:02.039Z,18.40
2017-08-31T20:01:28.440Z,18.40
2017-08-31T20:03:54.741Z,18.40
2017-08-31T20:06:21.528Z,18.40
2017-08-31T20:08:47.782Z,18.40
2017-08-31T20:11:14.241Z,18.50
2017-08-31T20:13:44.515Z,18.40
2017-08-31T20:16:10.834Z,18.50
2017-08-31T20:18:37.060Z,18.40
2017-08-31T20:21:03.410Z,18.40
2017-08-31T20:23:29.667Z,18.40
2017-08-31T20:25:55.913Z,18.40
2017-08-31T20:28:22.179Z,18.40
2017-08-31T20:30:48.526Z,18.40
2017-08-31T20:33:14.750Z,18.30
2017-08-31T20:35:41.026Z,18.30
2017-08-31T20:38:07.310Z,18.30
2017-08-31T20:40:33.562Z,18.30
2017-08-31T20:42:59.897Z,18.30
2017-08-31T20:45:26.222Z,18.30
2017-08-31T20:47:52.634Z,18.30
2017-08-31T20:50:19.053Z,18.30
2017-08-31T20:52:45.439Z,18.30
2017-08-31T20:55:11.722Z,18.30
2017-08-31T20:57:37.990Z,18.30
2017-08-31T21:00:04.235Z,18.30
2017-08-31T21:02:30.442Z,18.30
2017-08-31T21:04:56.758Z,18.30
2017-08-31T21:07:23.123Z,18.30
2017-08-31T21:09:49.362Z,18.30
2017-08-31T21:12:15.587Z,18.30
2017-08-31T21:14:42.727Z,18.30
2017-08-31T21:17:08.962Z,18.30
2017-08-31T21:19:35.170Z,18.30
2017-08-31T21:22:01.431Z,18.30
2017-08-31T21:24:27.674Z,18.20
2017-08-31T21:26:53.903Z,18.20
2017-08-31T21:29:20.166Z,18.20
2017-08-31T21:31:46.382Z,18.20
2017-08-31T21:34:12.613Z,18.20
2017-08-31T21:36:38.884Z,18.20
2017-08-31T21:39:05.105Z,18.20
2017-08-31T21:41:31.334Z,18.20
2017-08-31T21:43:57.614Z,18.20
2017-08-31T21:46:23.857Z,18.20
2017-08-31T21:48:50.157Z,18.10
2017-08-31T21:51:16.572Z,18.20
2017-08-31T21:53:42.806Z,18.10
2017-08-31T21:56:09.025Z,18.10
2017-08-31T21:58:35.298Z,18.10
2017-08-31T22:01:01.517Z,18.10
2017-08-31T22:03:27.746Z,18.10
2017-08-31T22:05:53.990Z,18.10
2017-08-31T22:08:21.267Z,18.10
2017-08-31T22:10:47.490Z,18.10
2017-08-31T22:13:13.826Z,18.10
2017-08-31T22:15:40.049Z,18.10
2017-08-31T22:18:06.270Z,18.10
2017-08-31T22:20:32.548Z,18.10
2017-08-31T22:22:58.818Z,18.10
2017-08-31T22:25:25.039Z,18.00
2017-08-31T22:27:51.282Z,18.00
2017-08-31T22:30:17.507Z,18.00
2017-08-31T22:32:43.738Z,18.00
2017-08-31T22:35:09.976Z,18.00
2017-08-31T22:37:36.195Z,18.00
2017-08-31T22:40:02.500Z,18.00
2017-08-31T22:42:28.756Z,17.90
2017-08-31T22:44:55.078Z,17.90
2017-08-31T22:47:21.289Z,17.90
2017-08-31T22:49:47.636Z,17.90
2017-08-31T22:52:14.150Z,17.90
2017-08-31T22:54:47.462Z,17.80
2017-08-31T22:57:25.918Z,17.80
2017-08-31T22:59:52.162Z,17.80
2017-08-31T23:02:18.390Z,17.80
2017-08-31T23:04:44.626Z,17.70
2017-08-31T23:07:10.853Z,17.70
2017-08-31T23:09:37.066Z,17.70
2017-08-31T23:12:03.333Z,17.70
2017-08-31T23:14:29.574Z,17.60
2017-08-31T23:16:55.810Z,17.60
2017-08-31T23:19:22.026Z,17.60
2017-08-31T23:21:48.277Z,17.60
2017-08-31T23:24:14.502Z,17.60
2017-08-31T23:26:40.735Z,17.60
2017-08-31T23:29:07.002Z,17.60
2017-08-31T23:31:33.282Z,17.60
2017-08-31T23:34:00.492Z,17.60
2017-08-31T23:36:26.750Z,17.60
2017-08-31T23:38:52.986Z,17.60
2017-08-31T23:41:19.210Z,17.60
2017-08-31T23:43:45.450Z,17.60
2017-08-31T23:46:11.678Z,17.50
2017-08-31T23:48:37.901Z,17.50
2017-08-31T23:51:04.238Z,17.50
2017-08-31T23:53:30.646Z,17.50
2017-08-31T23:55:56.872Z,17.50
2017-08-31T23:58:23.154Z,17.50
